createdAt,value
2022-12-15T00:00:16.367Z,26.00
2022-12-15T00:05:37.132Z,29.80
2022-12-15T00:10:58.217Z,24.30
2022-12-15T00:16:18.985Z,21.85
2022-12-15T00:21:40.063Z,25.90
2022-12-15T00:27:00.716Z,29.75
2022-12-15T00:32:21.584Z,23.35
2022-12-15T00:37:42.520Z,26.13
2022-12-15T00:42:44.766Z,24.95
2022-12-15T00:47:51.707Z,17.70
2022-12-15T00:53:12.496Z,20.63
2022-12-15T00:58:33.398Z,26.40
2022-12-15T01:03:54.033Z,24.17
2022-12-15T01:09:15.338Z,24.40
2022-12-15T01:14:36.274Z,22.40
2022-12-15T01:19:57.195Z,23.42
2022-12-15T01:24:59.398Z,27.65
2022-12-15T01:30:02.545Z,29.83
2022-12-15T01:35:06.470Z,25.20
2022-12-15T01:40:32.028Z,24.23
2022-12-15T01:45:49.198Z,29.60
2022-12-15T01:51:30.773Z,29.77
2022-12-15T01:56:38.130Z,24.27
2022-12-15T02:01:40.859Z,26.27
2022-12-15T02:06:43.634Z,24.23
2022-12-15T02:12:26.315Z,26.88
2022-12-15T02:17:53.472Z,26.65
2022-12-15T02:23:10.639Z,21.23
2022-12-15T02:28:46.494Z,19.02
2022-12-15T02:34:05.477Z,27.88
2022-12-15T02:39:07.719Z,23.42
2022-12-15T02:44:20.861Z,26.33
2022-12-15T02:50:04.808Z,29.60
2022-12-15T02:55:25.461Z,24.48
2022-12-15T03:00:29.021Z,24.90
2022-12-15T03:05:32.288Z,30.92
2022-12-15T03:10:34.867Z,26.02
2022-12-15T03:15:37.059Z,22.73
2022-12-15T03:20:39.350Z,28.85
2022-12-15T03:25:41.637Z,26.02
2022-12-15T03:30:44.097Z,26.58
2022-12-15T03:35:47.184Z,21.55
2022-12-15T03:40:49.472Z,24.10
2022-12-15T03:45:51.781Z,28.05
2022-12-15T03:50:54.481Z,21.23
2022-12-15T03:55:56.705Z,25.15
2022-12-15T04:00:59.126Z,24.25
2022-12-15T04:06:01.353Z,24.63
2022-12-15T04:11:03.809Z,26.05
2022-12-15T04:16:06.425Z,19.88
2022-12-15T04:21:08.673Z,27.10
2022-12-15T04:26:29.143Z,25.50
2022-12-15T04:37:13.421Z,24.88
2022-12-15T04:42:35.345Z,31.98
2022-12-15T04:47:56.170Z,28.23
2022-12-15T04:53:27.045Z,39.75
2022-12-15T04:58:47.662Z,40.97
2022-12-15T05:04:08.541Z,42.40
2022-12-15T05:09:29.400Z,46.55
2022-12-15T05:14:50.227Z,38.80
2022-12-15T05:20:11.025Z,60.22
2022-12-15T05:25:31.834Z,55.70
2022-12-15T05:30:52.558Z,40.30
2022-12-15T05:35:59.272Z,44.67
2022-12-15T05:41:01.875Z,32.08
2022-12-15T05:46:05.521Z,30.38
2022-12-15T05:51:10.185Z,30.40
2022-12-15T05:56:14.734Z,30.73
2022-12-15T06:01:19.736Z,29.48
2022-12-15T06:06:22.130Z,34.75
2022-12-15T06:11:24.583Z,36.00
2022-12-15T06:16:31.027Z,29.70
2022-12-15T06:21:36.989Z,23.95
2022-12-15T06:26:40.622Z,26.05
2022-12-15T06:31:43.523Z,27.73
2022-12-15T06:36:46.142Z,26.00
2022-12-15T06:41:48.414Z,32.75
2022-12-15T06:46:50.854Z,28.70
2022-12-15T06:51:53.205Z,32.10
2022-12-15T06:56:55.447Z,47.50
2022-12-15T07:01:57.907Z,39.95
2022-12-15T07:07:00.382Z,32.75
2022-12-15T07:12:02.936Z,42.55
2022-12-15T07:17:06.399Z,35.22
2022-12-15T07:22:08.690Z,43.97
2022-12-15T07:27:11.089Z,34.35
2022-12-15T07:32:13.329Z,35.25
2022-12-15T07:37:16.667Z,35.42
2022-12-15T07:42:19.926Z,28.92
2022-12-15T07:47:22.275Z,28.40
2022-12-15T07:52:24.850Z,31.75
2022-12-15T07:57:27.061Z,35.22
2022-12-15T08:02:32.340Z,28.25
2022-12-15T08:07:34.781Z,27.55
2022-12-15T08:12:37.054Z,35.78
2022-12-15T08:17:39.426Z,26.88
2022-12-15T08:22:42.107Z,34.85
2022-12-15T08:27:44.358Z,21.13
2022-12-15T08:32:51.917Z,26.33
2022-12-15T08:37:54.574Z,21.63
2022-12-15T08:42:56.875Z,22.65
2022-12-15T08:48:00.113Z,24.00
2022-12-15T08:53:29.653Z,26.50
2022-12-15T08:58:24.848Z,19.33
2022-12-15T09:03:27.993Z,20.27
2022-12-15T09:08:31.425Z,18.02
2022-12-15T09:13:34.489Z,15.40
2022-12-15T09:18:37.320Z,25.40
2022-12-15T09:23:40.442Z,16.90
2022-12-15T09:28:50.220Z,15.82
2022-12-15T09:33:54.507Z,23.13
2022-12-15T09:38:57.097Z,15.50
2022-12-15T09:44:18.901Z,14.88
2022-12-15T09:49:41.190Z,18.30
2022-12-15T09:54:45.063Z,14.90
2022-12-15T10:00:08.036Z,16.70
2022-12-15T10:11:07.078Z,16.40
2022-12-15T10:16:28.280Z,18.05
2022-12-15T10:21:32.968Z,17.77
2022-12-15T10:26:36.002Z,13.30
2022-12-15T10:37:05.024Z,20.10
2022-12-15T10:48:05.306Z,17.38
2022-12-15T10:53:11.668Z,19.13
2022-12-15T10:58:22.410Z,13.32
2022-12-15T11:03:27.531Z,12.63
2022-12-15T11:14:16.312Z,23.45
2022-12-15T11:25:33.193Z,15.77
2022-12-15T12:10:13.989Z,14.75
2022-12-15T12:15:30.956Z,15.60
2022-12-15T12:20:56.532Z,19.00
2022-12-15T12:26:08.703Z,10.00
2022-12-15T12:31:23.379Z,13.88
2022-12-15T12:36:25.904Z,14.00
2022-12-15T12:41:36.811Z,11.20
2022-12-15T12:46:49.281Z,15.55
2022-12-15T12:51:55.552Z,15.50
2022-12-15T12:56:57.849Z,15.43
2022-12-15T13:02:17.194Z,20.65
2022-12-15T13:07:41.387Z,11.63
2022-12-15T13:12:59.776Z,16.88
2022-12-15T13:18:24.320Z,10.95
2022-12-15T13:23:26.589Z,11.80
2022-12-15T13:28:40.705Z,13.88
2022-12-15T13:33:51.357Z,20.75
2022-12-15T13:38:56.360Z,15.95
2022-12-15T13:44:00.912Z,13.88
2022-12-15T13:49:10.818Z,17.85
2022-12-15T13:54:25.449Z,14.93
2022-12-15T13:59:42.944Z,17.08
2022-12-15T14:04:45.280Z,16.77
2022-12-15T14:09:50.878Z,15.43
2022-12-15T14:14:53.208Z,12.82
2022-12-15T14:19:55.686Z,21.42
2022-12-15T14:25:13.952Z,17.30
2022-12-15T14:30:24.009Z,17.38
2022-12-15T14:35:55.767Z,21.55
2022-12-15T14:41:01.682Z,17.50
2022-12-15T14:46:19.889Z,17.63
2022-12-15T14:51:24.132Z,21.05
2022-12-15T14:56:33.497Z,25.38
2022-12-15T15:01:42.984Z,28.50
2022-12-15T15:03:12.649Z,9.32
2022-12-15T15:12:18.537Z,39.05
2022-12-15T15:17:29.554Z,32.47
2022-12-15T15:22:42.861Z,33.25
2022-12-15T15:27:45.171Z,42.55
2022-12-15T15:32:52.446Z,41.22
2022-12-15T15:38:03.143Z,37.83
2022-12-15T15:43:12.421Z,41.55
2022-12-15T15:48:25.659Z,34.08
2022-12-15T15:53:32.384Z,49.50
2022-12-15T15:58:35.628Z,51.22
2022-12-15T16:03:38.648Z,45.53
2022-12-15T16:08:44.469Z,40.58
2022-12-15T16:13:46.781Z,49.88
2022-12-15T16:18:49.953Z,47.78
2022-12-15T16:23:53.438Z,61.35
2022-12-15T16:28:56.002Z,52.60
2022-12-15T16:33:58.367Z,57.08
2022-12-15T16:39:00.624Z,65.60
2022-12-15T16:44:02.873Z,62.65
2022-12-15T16:49:05.131Z,67.20
2022-12-15T16:54:08.153Z,60.95
2022-12-15T16:59:34.926Z,67.80
2022-12-15T17:04:37.735Z,60.92
2022-12-15T17:09:41.769Z,61.50
2022-12-15T17:14:45.435Z,85.10
2022-12-15T17:20:27.346Z,70.57
2022-12-15T17:26:00.847Z,58.55
2022-12-15T17:30:53.353Z,54.65
2022-12-15T17:36:05.226Z,71.97
2022-12-15T17:41:23.640Z,46.38
2022-12-15T17:46:34.996Z,54.85
2022-12-15T17:51:37.414Z,63.95
2022-12-15T17:56:39.889Z,45.67
2022-12-15T18:01:46.389Z,66.35
2022-12-15T18:06:49.324Z,44.33
2022-12-15T18:11:51.661Z,42.60
2022-12-15T18:16:53.922Z,46.78
2022-12-15T18:21:56.185Z,55.83
2022-12-15T18:26:59.030Z,41.92
2022-12-15T18:32:01.424Z,40.33
2022-12-15T18:37:14.235Z,48.03
2022-12-15T18:42:19.286Z,39.30
2022-12-15T18:47:23.820Z,41.88
2022-12-15T18:52:31.452Z,45.78
2022-12-15T18:57:39.850Z,46.50
2022-12-15T19:02:43.157Z,40.75
2022-12-15T19:07:45.590Z,42.97
2022-12-15T19:12:47.887Z,54.55
2022-12-15T19:18:08.673Z,61.83
2022-12-15T19:23:13.432Z,60.17
2022-12-15T19:28:22.357Z,75.47
2022-12-15T19:33:24.784Z,76.60
2022-12-15T19:38:30.696Z,95.30
2022-12-15T19:43:33.283Z,83.97
2022-12-15T19:48:35.650Z,78.88
2022-12-15T19:53:38.272Z,95.70
2022-12-15T19:58:40.568Z,79.75
2022-12-15T20:03:44.353Z,70.93
2022-12-15T20:08:48.862Z,74.28
2022-12-15T20:13:52.384Z,60.63
2022-12-15T20:18:56.458Z,69.95
2022-12-15T20:24:12.875Z,68.28
2022-12-15T20:29:30.453Z,75.63
2022-12-15T20:34:32.820Z,74.10
2022-12-15T20:39:35.118Z,123.20
2022-12-15T20:44:37.369Z,77.05
2022-12-15T20:49:39.737Z,88.47
2022-12-15T20:54:43.391Z,63.22
2022-12-15T20:59:46.426Z,61.60
2022-12-15T21:04:49.375Z,60.08
2022-12-15T21:09:52.101Z,79.38
2022-12-15T21:14:54.949Z,56.03
2022-12-15T21:19:57.133Z,51.35
2022-12-15T21:25:00.844Z,50.75
2022-12-15T21:30:07.174Z,56.65
2022-12-15T21:35:15.302Z,67.28
2022-12-15T21:40:22.383Z,55.70
2022-12-15T21:45:26.736Z,65.47
2022-12-15T21:50:29.319Z,61.22
2022-12-15T21:55:32.418Z,61.65
2022-12-15T22:00:34.751Z,71.03
2022-12-15T22:05:37.240Z,73.57
2022-12-15T22:10:39.921Z,77.93
2022-12-15T22:15:42.855Z,58.65
2022-12-15T22:20:46.149Z,64.30
2022-12-15T22:25:53.076Z,65.80
2022-12-15T22:30:57.429Z,62.05
2022-12-15T22:35:59.946Z,74.25
2022-12-15T22:41:02.567Z,70.15
2022-12-15T22:46:07.569Z,63.58
2022-12-15T22:51:14.847Z,57.38
2022-12-15T22:56:32.742Z,62.58
2022-12-15T23:01:35.756Z,67.72
2022-12-15T23:06:38.072Z,60.95
2022-12-15T23:11:41.840Z,62.50
2022-12-15T23:16:46.299Z,65.55
2022-12-15T23:21:48.595Z,59.90
2022-12-15T23:26:50.883Z,62.20
2022-12-15T23:31:54.056Z,61.70
2022-12-15T23:36:56.372Z,75.35
2022-12-15T23:41:58.653Z,60.58
2022-12-15T23:47:01.347Z,56.25
2022-12-15T23:52:03.653Z,60.25
2022-12-15T23:57:05.841Z,69.95
